Airfield :







YOU CAN JOIN US ON...

 
LOGIN :

Register | Disclaimer

   EN    FR    IT 

 









Legend :    VFR   Marginal VFR   IFR   Intensive IFR   Very Intensive IFR
Visi :
Ceiling :
>= 8 km
>= 3000ft
5 to 8 km
1000 to 3000 ft
1500m to 5 km
500 to 1000 ft
800 to 1500m
200 to 500 ft
< 800m
< 200 ft
Symbols :   Thunderstorms  Fog  Heavy snow  Heavy precipitations  Wind > 20 kt







- Airport Elevation : 1009 ft
- IATA code : ORH


KORH - Worcester Regional

CURRENT METAR :
  • 221254Z 03010KT 10SM FEW020 OVC110 13/11 A3009 RMK AO2 SLP192 T01330106

EXPIRED METARs :
  • 221154Z 03007KT 10SM OVC095 12/10 A3009 RMK AO2 SLP193 70001 T01220100 10122 20089 53006
  • 221113Z 01008KT 10SM SCT024 BKN110 12/10 A3009 RMK AO2 T01170100
  • 221054Z 01007KT 10SM BKN024 OVC110 12/09 A3009 RMK AO2 SLP190 T01170094

TAF KORH
Valid from the 22 at 12:00 until the 23 at 12:00 UTC


221131Z 2212/2312 02007KT P6SM BKN050
FM221400 04008KT 6SM BR VCSH BKN015
FM222000 04010G22KT 2SM SHRA OVC015
FM230200 03008G19KT 4SM -SHRA OVC008
FM230500 02010G19KT 4SM -SHRA OVC008
FM231100 36009KT P6SM OVC008
KZBW FIR / North America



MET'MAP, your aeronautical weather chart ! - Copyright ORBIFLY December 2007 - Disclaimer

ORBIFLY MET'MAP TEAM :

Programming & Development : Alexandra Zaïnal
Concept & Development : Baudouin d'Aumeries
Co-Development & Prog : Marc-Olivier Méhu
Technical & hardware support : Manuel Goepfert

Contact : metmap@orbifly.com




SOURCES & CREDITS :

   NOAA